AirNav   Air Wisconsin pilot careers
 
 1429 users online  

5KY6 Jake's Field Airport
Smithfield, Kentucky, USA

GOING TO SMITHFIELD?


FAA INFORMATION EFFECTIVE 13 SEPTEMBER 2018

Location

FAA Identifier: 5KY6
Lat/Long: 38-25-14.0000N / 085-15-28.0000W
38-25.233333N / 085-15.466667W
38.4205556 / -85.2577778
(estimated)
Elevation: 903 ft. / 275 m (estimated)
From city: 2 miles S of SMITHFIELD, KY
Time zone: UTC -4 (UTC -5 during Standard Time)
Zip code: 40050

Airport Operations

Airport use: Private use. Permission required prior to landing
Activation date: 03/2006
Control tower: no
ARTCC: INDIANAPOLIS CENTER
FSS: LOUISVILLE FLIGHT SERVICE STATION
Attendance: IREG
Wind indicator: yes
Segmented circle: no

Nearby radio navigation aids

VOR radial/distance  VOR name  Freq  Var
FFTr314/(21.8)FRANKFORT VOR109.4003W
BQMr063/22.3BOWMAN VOR/DME112.2004W
IIUr037/24.3LOUISVILLE VORTAC114.8001E

Airport Services

Runway Information

Runway 3/21

Dimensions: 1600 x 50 ft. / 488 x 15 m
Surface: turf, in good condition
Operational restrictions: THLDS MARKED WITH CEMENT SQUARES PAINTED WHITE.
RUNWAY 3  RUNWAY 21
Traffic pattern: leftleft

Airport Ownership and Management from official FAA records

Ownership: Privately-owned
Owner: JOY & KEVIN MCGREEVY
1983 HIEATT LANE
SMITHFIELD, KY 40068
Phone 502-845-1683
Manager: JOY & KEVIN MCGREEVY
1983 HIEATT LANE
SMITHFIELD, KY 40068
Phone 502-845-1683

Airport Operational Statistics

Aircraft based on the field: 1
Single engine airplanes: 1
    

Instrument Procedures

There are no published instrument procedures at 5KY6.

Some nearby airports with instrument procedures:

KFFT - Capital City Airport (22 nm SE)
KLOU - Bowman Field Airport (22 nm SW)
KIMS - Madison Municipal Airport (23 nm NW)
KJVY - Clark Regional Airport (23 nm W)
KSDF - Louisville International Airport-Standiford Field (27 nm SW)
 
Loc | Ops | Rwys | IFR | FBO | Links
Com | Nav | Svcs | Stats | Notes


 
Aerial photo
No photo
 
Sectional chart

 
Airport distance calculator
Flying to Jake's Field Airport? Find the distance to fly.

From to 5KY6

Sunrise and sunset
Times for 21-Sep-2018
 Local
(UTC-4)
 Zulu
(UTC)
Morning civil twilight07:0211:02
Sunrise07:2911:29
Sunset19:3923:39
Evening civil twilight20:0600:06

Current date and time
Zulu (UTC)  21-Sep-2018 17:00:00
Local (UTC-4)  21-Sep-2018 13:00:00
 
METAR
KFFT 
22nm SE 
211653Z AUTO 22009KT 10SM BKN120 28/22 A3007 RMK AO2 SLP173 T02830217 TSNO
KIMS 
23nm NW 
211636Z AUTO 21010KT 10SM CLR 31/20 A3005 RMK AO1
KLOU 
23nm SW 
211653Z 22010G19KT 10SM FEW037 32/23 A3003 RMK AO2 SLP164 T03220228
KSDF 
27nm SW 
211556Z 21009KT 10SM FEW120 FEW250 30/22 A3005 RMK AO2 SLP169 T03000217
KBRY 
38nm S 
211655Z AUTO 23008KT 10SM CLR 30/21 A3007 RMK AO1
KLEX 
39nm SE 
211654Z 19011KT 10SM FEW065 BKN110 27/21 A3010 RMK AO2 SLP181 T02670211
TAF
KSDF 
27nm SW 
211137Z 2112/2218 19012KT P6SM SCT080 BKN120 FM211300 21013G19KT P6SM BKN080 FM211800 24014G22KT P6SM VCTS BKN060CB TEMPO 2121/2124 VRB15G25KT 2SM TSRA FM220100 32011G16KT P6SM BKN060 FM220600 36012KT P6SM SCT023 OVC060
NOTAMs
Click for the latest NOTAMs
NOTAMs are issued by the DoD/FAA and will open in a separate window not controlled by AirNav.

 

 
 

Would you like to see your business listed on this page?

 If your business provides an interesting product or service to pilots, flight crews, aircraft, or users of the Jake's Field Airport, you should consider listing it here.  To start the listing process, click on the button below
 
Add a business
 

Other Pages about Jake's Field Airport

Update a link
 
Copyright © AirNav, LLC. All rights reserved. Privacy Policy  Contact